Time;durP1;ratioP1;P1;durP2;ratioP2;P2;SDS_P1;SDS_P2;PMS_P1;PMS_P2;Temp;Humidity;BMP_temperature;BMP_pressure;BME280_temperature;BME280_humidity;BME280_pressure;Samples;Min_cycle;Max_cycle;Signal;HPM_P1;HPM_P2
2023/12/21 00:00:23;;;;;;;13.17;9.60;;;;;;;;;;5041021;28;20176;-78
2023/12/21 00:02:49;;;;;;;12.17;9.10;;;;;;;;;;5039412;28;20176;-77
2023/12/21 00:05:18;;;;;;;12.37;9.33;;;;;;;;;;5060447;28;20213;-75
2023/12/21 00:07:44;;;;;;;14.93;9.27;;;;;;;;;;5058607;28;20171;-78
2023/12/21 00:10:10;;;;;;;16.53;9.07;;;;;;;;;;5055367;28;20174;-77
2023/12/21 00:12:36;;;;;;;14.43;10.07;;;;;;;;;;5054897;28;20183;-76
2023/12/21 00:15:02;;;;;;;16.33;9.27;;;;;;;;;;5061743;28;20168;-77
2023/12/21 00:17:28;;;;;;;22.57;11.53;;;;;;;;;;5064035;28;20180;-76
2023/12/21 00:19:54;;;;;;;19.37;13.07;;;;;;;;;;5036971;28;20173;-80
2023/12/21 00:22:20;;;;;;;28.03;18.03;;;;;;;;;;5055252;28;20176;-79
2023/12/21 00:24:46;;;;;;;32.97;19.07;;;;;;;;;;5055944;28;20183;-77
2023/12/21 00:27:12;;;;;;;32.00;18.97;;;;;;;;;;5055273;28;20188;-77
2023/12/21 00:29:39;;;;;;;28.00;19.17;;;;;;;;;;5056026;28;20186;-79
2023/12/21 00:32:05;;;;;;;31.67;20.33;;;;;;;;;;5037083;28;20186;-78
2023/12/21 00:34:31;;;;;;;32.37;19.60;;;;;;;;;;5055142;28;20175;-76
2023/12/21 00:36:57;;;;;;;27.97;18.77;;;;;;;;;;5054787;28;20217;-79
2023/12/21 00:39:24;;;;;;;33.77;20.57;;;;;;;;;;5055498;28;20174;-78
2023/12/21 00:41:50;;;;;;;38.90;21.13;;;;;;;;;;5035963;28;20180;-80
2023/12/21 00:44:17;;;;;;;35.57;20.67;;;;;;;;;;5054614;28;20261;-79
2023/12/21 00:46:43;;;;;;;35.27;20.80;;;;;;;;;;5055345;28;20328;-78
2023/12/21 00:49:09;;;;;;;34.70;20.27;;;;;;;;;;5055323;28;20170;-78
2023/12/21 00:51:35;;;;;;;32.10;20.77;;;;;;;;;;5056505;28;20182;-81
2023/12/21 00:54:01;;;;;;;30.83;20.37;;;;;;;;;;5038146;28;20191;-80
2023/12/21 00:56:27;;;;;;;32.40;21.17;;;;;;;;;;5054015;28;20274;-77
2023/12/21 00:58:53;;;;;;;33.30;20.70;;;;;;;;;;5060932;28;20229;-77
2023/12/21 01:01:19;;;;;;;37.37;22.17;;;;;;;;;;5063112;28;20649;-78
2023/12/21 01:03:45;;;;;;;38.50;21.07;;;;;;;;;;5039316;28;20186;-78
2023/12/21 01:06:12;;;;;;;37.40;21.70;;;;;;;;;;5056233;28;20279;-78
2023/12/21 01:08:40;;;;;;;37.10;21.90;;;;;;;;;;5054776;28;20186;-77
2023/12/21 01:11:06;;;;;;;34.97;21.87;;;;;;;;;;5053534;28;20172;-79
2023/12/21 01:13:33;;;;;;;33.70;21.40;;;;;;;;;;5053978;28;20507;-78
2023/12/21 01:15:59;;;;;;;41.93;21.33;;;;;;;;;;5054261;28;20202;-76
2023/12/21 01:18:25;;;;;;;34.00;20.50;;;;;;;;;;5059719;28;20187;-77
2023/12/21 01:20:51;;;;;;;31.23;20.57;;;;;;;;;;5061087;28;20697;-77
2023/12/21 01:23:17;;;;;;;34.23;20.67;;;;;;;;;;5057026;28;20172;-80
2023/12/21 01:25:43;;;;;;;36.23;20.90;;;;;;;;;;5056578;28;20218;-78
2023/12/21 01:28:09;;;;;;;40.53;21.60;;;;;;;;;;5062923;28;20175;-78
2023/12/21 01:30:35;;;;;;;34.67;19.83;;;;;;;;;;5054086;28;20178;-79
2023/12/21 01:33:02;;;;;;;33.33;20.47;;;;;;;;;;5062401;28;20199;-78
2023/12/21 01:35:28;;;;;;;31.77;19.53;;;;;;;;;;5057367;28;20498;-79
2023/12/21 01:37:54;;;;;;;31.37;19.60;;;;;;;;;;5054962;28;20607;-79
2023/12/21 01:40:20;;;;;;;29.10;17.53;;;;;;;;;;5055060;28;20208;-78
2023/12/21 01:42:46;;;;;;;25.60;17.27;;;;;;;;;;5053959;28;20641;-78
2023/12/21 01:45:12;;;;;;;26.77;16.93;;;;;;;;;;5053806;28;20284;-77
2023/12/21 01:47:39;;;;;;;26.10;17.50;;;;;;;;;;5053971;28;20635;-78
2023/12/21 01:50:06;;;;;;;27.67;18.67;;;;;;;;;;5036380;28;20704;-77
2023/12/21 01:52:35;;;;;;;28.60;18.67;;;;;;;;;;5035193;28;20520;-79
2023/12/21 01:55:02;;;;;;;28.20;17.63;;;;;;;;;;5053771;28;20654;-79
2023/12/21 01:57:28;;;;;;;30.30;18.23;;;;;;;;;;5035437;28;20190;-79
2023/12/21 01:59:54;;;;;;;29.17;17.83;;;;;;;;;;5067839;28;20379;-79
2023/12/21 02:02:22;;;;;;;27.47;17.33;;;;;;;;;;5074203;28;20171;-80
2023/12/21 02:04:48;;;;;;;26.50;17.80;;;;;;;;;;5073256;28;20175;-77
2023/12/21 02:07:15;;;;;;;29.37;18.17;;;;;;;;;;5072771;28;20210;-79
2023/12/21 02:09:41;;;;;;;28.57;18.67;;;;;;;;;;5072655;28;20185;-80
2023/12/21 02:12:07;;;;;;;27.57;17.17;;;;;;;;;;5072851;28;20170;-78
2023/12/21 02:14:33;;;;;;;26.23;17.43;;;;;;;;;;5074209;28;20515;-77
2023/12/21 02:17:02;;;;;;;34.07;18.10;;;;;;;;;;5076959;28;20242;-78
2023/12/21 02:19:28;;;;;;;25.77;17.20;;;;;;;;;;5081809;28;20171;-76
2023/12/21 02:21:58;;;;;;;29.63;17.40;;;;;;;;;;5075849;28;20297;-76
2023/12/21 02:24:25;;;;;;;27.13;17.30;;;;;;;;;;5075159;28;20163;-80
2023/12/21 02:26:54;;;;;;;25.33;16.93;;;;;;;;;;5071796;28;20219;-79
2023/12/21 02:29:21;;;;;;;22.40;16.37;;;;;;;;;;5072722;28;20179;-79
2023/12/21 02:31:47;;;;;;;28.40;18.43;;;;;;;;;;5078215;28;20190;-78
2023/12/21 02:34:13;;;;;;;26.23;17.80;;;;;;;;;;5083959;28;20520;-78
2023/12/21 02:36:39;;;;;;;27.20;18.50;;;;;;;;;;5087182;28;20172;-76
2023/12/21 02:39:05;;;;;;;28.73;17.97;;;;;;;;;;5079688;28;20263;-77
2023/12/21 02:41:37;;;;;;;27.83;17.90;;;;;;;;;;5076112;28;20163;-77
2023/12/21 02:44:03;;;;;;;28.43;17.53;;;;;;;;;;5078343;28;20182;-78
2023/12/21 02:46:29;;;;;;;22.60;14.97;;;;;;;;;;5076357;28;20348;-79
2023/12/21 02:48:55;;;;;;;17.93;11.03;;;;;;;;;;5076873;28;20545;-77
2023/12/21 02:51:21;;;;;;;22.80;13.00;;;;;;;;;;5084435;28;20178;-78
2023/12/21 02:53:47;;;;;;;16.33;11.30;;;;;;;;;;5080349;28;20233;-80
2023/12/21 02:56:14;;;;;;;17.27;10.87;;;;;;;;;;5077526;28;20201;-79
2023/12/21 02:58:40;;;;;;;16.50;10.17;;;;;;;;;;5069468;28;20260;-79
2023/12/21 03:01:06;;;;;;;13.20;10.10;;;;;;;;;;5056958;28;20168;-80
2023/12/21 03:03:32;;;;;;;13.17;9.20;;;;;;;;;;5057079;28;20182;-76
2023/12/21 03:05:58;;;;;;;12.17;8.50;;;;;;;;;;5070203;28;20218;-78
2023/12/21 03:08:25;;;;;;;11.93;8.27;;;;;;;;;;5065191;28;20187;-79
2023/12/21 03:10:51;;;;;;;12.37;8.37;;;;;;;;;;5066366;28;20211;-79
2023/12/21 03:13:17;;;;;;;12.23;7.77;;;;;;;;;;5059211;28;20201;-79
2023/12/21 03:15:43;;;;;;;12.03;8.50;;;;;;;;;;5057513;28;20267;-77
2023/12/21 03:18:09;;;;;;;10.50;7.43;;;;;;;;;;5057426;28;20179;-80
2023/12/21 03:20:35;;;;;;;14.53;7.63;;;;;;;;;;5057010;28;20581;-80
2023/12/21 03:23:01;;;;;;;14.37;8.40;;;;;;;;;;5056048;28;20185;-79
2023/12/21 03:25:28;;;;;;;11.67;7.67;;;;;;;;;;5057188;28;20209;-80
2023/12/21 03:27:54;;;;;;;13.37;7.63;;;;;;;;;;5056214;28;20203;-78
2023/12/21 03:30:20;;;;;;;12.17;8.10;;;;;;;;;;5056473;28;20180;-81
2023/12/21 03:32:46;;;;;;;13.03;8.47;;;;;;;;;;5055927;28;20936;-79
2023/12/21 03:35:12;;;;;;;12.03;8.57;;;;;;;;;;5055439;28;20185;-79
2023/12/21 03:37:38;;;;;;;12.00;8.30;;;;;;;;;;5057946;28;20901;-79
2023/12/21 03:40:06;;;;;;;11.40;7.73;;;;;;;;;;5056828;28;20178;-78
2023/12/21 03:42:33;;;;;;;11.33;8.70;;;;;;;;;;5056230;28;20226;-78
2023/12/21 03:44:59;;;;;;;15.67;11.60;;;;;;;;;;5055491;28;20539;-78
2023/12/21 03:47:25;;;;;;;20.93;12.67;;;;;;;;;;5055155;28;20204;-77
2023/12/21 03:49:51;;;;;;;21.80;13.23;;;;;;;;;;5056586;28;20173;-79
2023/12/21 03:52:17;;;;;;;20.00;13.67;;;;;;;;;;5054924;28;20175;-77
2023/12/21 03:54:43;;;;;;;18.87;13.37;;;;;;;;;;5056206;28;20171;-77
2023/12/21 03:57:09;;;;;;;22.70;14.57;;;;;;;;;;5055839;28;20179;-79
2023/12/21 03:59:35;;;;;;;23.90;14.63;;;;;;;;;;5086299;28;20217;-79
2023/12/21 04:02:02;;;;;;;23.07;15.00;;;;;;;;;;5095185;28;20249;-80
2023/12/21 04:04:31;;;;;;;21.83;15.10;;;;;;;;;;5095804;28;20189;-78
2023/12/21 04:06:57;;;;;;;19.23;13.80;;;;;;;;;;5095577;28;20875;-78
2023/12/21 04:09:23;;;;;;;22.03;14.77;;;;;;;;;;5099754;28;20257;-78
2023/12/21 04:11:50;;;;;;;20.47;14.27;;;;;;;;;;5079819;28;20178;-77
2023/12/21 04:14:17;;;;;;;23.53;15.03;;;;;;;;;;5108675;28;20230;-78
2023/12/21 04:16:43;;;;;;;21.73;14.57;;;;;;;;;;5100528;28;20181;-77
2023/12/21 04:19:09;;;;;;;25.77;15.47;;;;;;;;;;5106279;28;20178;-75
2023/12/21 04:21:36;;;;;;;27.97;16.27;;;;;;;;;;5101798;28;20652;-79
2023/12/21 04:24:02;;;;;;;23.77;15.50;;;;;;;;;;5095797;28;20177;-78
2023/12/21 04:26:28;;;;;;;24.97;16.03;;;;;;;;;;5095760;28;20209;-79
2023/12/21 04:28:55;;;;;;;25.33;15.43;;;;;;;;;;5077748;28;20178;-77
2023/12/21 04:31:22;;;;;;;23.37;15.03;;;;;;;;;;5083146;28;20188;-79
2023/12/21 04:33:49;;;;;;;25.23;14.53;;;;;;;;;;5089675;28;20170;-77
2023/12/21 04:36:15;;;;;;;23.90;14.67;;;;;;;;;;5077113;28;20301;-79
2023/12/21 04:38:41;;;;;;;23.37;14.33;;;;;;;;;;5076296;28;20175;-78
2023/12/21 04:41:07;;;;;;;22.40;14.70;;;;;;;;;;5056936;28;20181;-78
2023/12/21 04:43:33;;;;;;;24.07;14.43;;;;;;;;;;5074027;28;20661;-80
2023/12/21 04:45:59;;;;;;;20.70;14.90;;;;;;;;;;5073914;28;20198;-79
2023/12/21 04:48:28;;;;;;;25.37;15.30;;;;;;;;;;5074507;28;20180;-79
2023/12/21 04:50:54;;;;;;;24.10;14.87;;;;;;;;;;5081859;28;20201;-79
2023/12/21 04:53:20;;;;;;;21.47;15.07;;;;;;;;;;5087393;28;20174;-78
2023/12/21 04:55:46;;;;;;;23.27;15.07;;;;;;;;;;5080114;28;20186;-81
2023/12/21 04:58:12;;;;;;;23.77;15.37;;;;;;;;;;5057461;28;20221;-79
2023/12/21 05:00:40;;;;;;;21.80;14.63;;;;;;;;;;5073477;28;20178;-81
2023/12/21 05:03:06;;;;;;;24.30;15.47;;;;;;;;;;5075065;28;20550;-81
2023/12/21 05:05:32;;;;;;;31.40;16.03;;;;;;;;;;5073463;28;20213;-79
2023/12/21 05:07:58;;;;;;;19.17;14.13;;;;;;;;;;5074685;28;20167;-79
2023/12/21 05:10:24;;;;;;;27.50;16.60;;;;;;;;;;5072935;28;20545;-79
2023/12/21 05:12:51;;;;;;;29.07;16.60;;;;;;;;;;5073739;28;20529;-80
2023/12/21 05:15:17;;;;;;;22.73;15.67;;;;;;;;;;5071410;28;20247;-79
2023/12/21 05:17:43;;;;;;;25.07;15.77;;;;;;;;;;5073838;28;20262;-80
2023/12/21 05:20:09;;;;;;;24.57;15.67;;;;;;;;;;5071733;28;20805;-81
2023/12/21 05:22:35;;;;;;;22.90;14.83;;;;;;;;;;5073437;28;20180;-79
2023/12/21 05:25:02;;;;;;;23.60;15.60;;;;;;;;;;5073052;28;20580;-79
2023/12/21 05:27:29;;;;;;;25.47;15.50;;;;;;;;;;5081306;28;20205;-76
2023/12/21 05:29:56;;;;;;;24.40;15.87;;;;;;;;;;5079842;28;20173;-79
2023/12/21 05:32:22;;;;;;;24.67;15.47;;;;;;;;;;5076142;28;20256;-78
2023/12/21 05:34:48;;;;;;;22.63;15.40;;;;;;;;;;5072782;28;20302;-79
2023/12/21 05:37:14;;;;;;;30.47;16.03;;;;;;;;;;5073524;28;20257;-79
2023/12/21 05:39:47;;;;;;;23.73;15.03;;;;;;;;;;5071890;28;20193;-79
2023/12/21 05:42:14;;;;;;;23.53;14.43;;;;;;;;;;5072332;28;20171;-78
2023/12/21 05:44:40;;;;;;;23.77;13.77;;;;;;;;;;5077554;28;20184;-78
2023/12/21 05:47:06;;;;;;;19.63;13.70;;;;;;;;;;5072146;28;20200;-79
2023/12/21 05:49:35;;;;;;;23.20;14.43;;;;;;;;;;5082353;28;20246;-78
2023/12/21 05:52:04;;;;;;;21.67;14.20;;;;;;;;;;5077211;28;20209;-78
2023/12/21 05:54:30;;;;;;;22.93;14.03;;;;;;;;;;5073455;28;20700;-79
2023/12/21 05:56:56;;;;;;;20.23;13.63;;;;;;;;;;5073815;28;20259;-77
2023/12/21 05:59:22;;;;;;;22.40;13.73;;;;;;;;;;5073796;28;20234;-77
2023/12/21 06:01:49;;;;;;;24.67;14.70;;;;;;;;;;5070296;28;20198;-76
2023/12/21 06:04:15;;;;;;;24.73;14.17;;;;;;;;;;5087013;28;20183;-79
2023/12/21 06:06:45;;;;;;;19.73;12.17;;;;;;;;;;5059829;28;20222;-78
2023/12/21 06:09:11;;;;;;;15.30;10.87;;;;;;;;;;5075451;28;20517;-78
2023/12/21 06:11:37;;;;;;;17.90;11.40;;;;;;;;;;5073819;28;20178;-77
2023/12/21 06:14:04;;;;;;;16.90;10.57;;;;;;;;;;5071766;28;20174;-77
2023/12/21 06:16:30;;;;;;;13.93;9.23;;;;;;;;;;5035958;28;20548;-78
2023/12/21 06:18:56;;;;;;;13.67;9.90;;;;;;;;;;5037037;28;20225;-77
2023/12/21 06:21:23;;;;;;;15.60;10.10;;;;;;;;;;5036667;28;20209;-78
2023/12/21 06:23:49;;;;;;;12.50;9.97;;;;;;;;;;5057743;28;20854;-79
2023/12/21 06:26:15;;;;;;;12.17;9.37;;;;;;;;;;5057884;28;20560;-80
2023/12/21 06:28:42;;;;;;;16.43;9.83;;;;;;;;;;5056760;28;20193;-78
2023/12/21 06:31:16;;;;;;;12.97;8.83;;;;;;;;;;5039592;28;20212;-78
2023/12/21 06:33:43;;;;;;;10.73;9.17;;;;;;;;;;5056792;28;20179;-79
2023/12/21 06:36:09;;;;;;;14.80;9.50;;;;;;;;;;5056743;28;20265;-78
2023/12/21 06:38:35;;;;;;;11.60;8.93;;;;;;;;;;5066526;28;20178;-78
2023/12/21 06:41:02;;;;;;;14.90;10.57;;;;;;;;;;5053537;28;20177;-78
2023/12/21 06:43:28;;;;;;;14.20;10.20;;;;;;;;;;5064621;28;20185;-76
2023/12/21 06:45:54;;;;;;;21.17;11.43;;;;;;;;;;5066017;28;20211;-78
2023/12/21 06:48:20;;;;;;;16.93;10.77;;;;;;;;;;5062636;28;20650;-80
2023/12/21 06:50:47;;;;;;;15.13;10.63;;;;;;;;;;5059580;28;20674;-79
2023/12/21 06:53:15;;;;;;;15.03;9.93;;;;;;;;;;5040012;28;20527;-78
2023/12/21 06:55:44;;;;;;;13.77;8.93;;;;;;;;;;5050274;28;20176;-79
2023/12/21 06:58:11;;;;;;;14.77;9.33;;;;;;;;;;5037574;28;20218;-80
2023/12/21 07:00:37;;;;;;;14.20;9.87;;;;;;;;;;5037487;28;20190;-79
2023/12/21 07:03:03;;;;;;;16.43;10.00;;;;;;;;;;5037548;28;20239;-79
2023/12/21 07:05:29;;;;;;;13.90;9.33;;;;;;;;;;5075945;28;20202;-79
2023/12/21 07:07:57;;;;;;;13.10;8.63;;;;;;;;;;5070279;28;20190;-78
2023/12/21 07:10:23;;;;;;;14.90;9.33;;;;;;;;;;5056229;28;20210;-76
2023/12/21 07:12:49;;;;;;;11.10;8.67;;;;;;;;;;5055779;28;20210;-76
2023/12/21 07:15:16;;;;;;;13.10;8.70;;;;;;;;;;5057137;28;20174;-77
2023/12/21 07:17:43;;;;;;;15.00;9.33;;;;;;;;;;5058526;28;20185;-76
2023/12/21 07:20:09;;;;;;;11.70;9.03;;;;;;;;;;5039965;28;20172;-76
2023/12/21 07:22:35;;;;;;;11.67;8.83;;;;;;;;;;5056180;28;20530;-78
2023/12/21 07:25:04;;;;;;;13.47;8.53;;;;;;;;;;5055690;28;20172;-77
2023/12/21 07:27:30;;;;;;;11.50;8.23;;;;;;;;;;5051987;28;20240;-79
2023/12/21 07:29:57;;;;;;;13.73;8.67;;;;;;;;;;5067210;28;20178;-78
2023/12/21 07:32:23;;;;;;;11.10;8.47;;;;;;;;;;5067944;28;20652;-79
2023/12/21 07:34:49;;;;;;;12.53;8.13;;;;;;;;;;5073832;28;20172;-79
2023/12/21 07:37:16;;;;;;;12.17;9.17;;;;;;;;;;5051079;28;20168;-80
2023/12/21 07:39:43;;;;;;;13.43;8.33;;;;;;;;;;5057770;28;20180;-78
2023/12/21 07:42:09;;;;;;;12.53;8.20;;;;;;;;;;5059188;28;20175;-78
2023/12/21 07:44:37;;;;;;;11.00;8.50;;;;;;;;;;5056641;28;20179;-79
2023/12/21 07:47:03;;;;;;;13.07;8.40;;;;;;;;;;5055795;28;20539;-78
2023/12/21 07:49:29;;;;;;;10.97;8.50;;;;;;;;;;5037560;28;20260;-77
2023/12/21 07:51:55;;;;;;;12.83;8.73;;;;;;;;;;5055109;28;20182;-77
2023/12/21 07:54:21;;;;;;;14.20;9.30;;;;;;;;;;5055123;28;20277;-79
2023/12/21 07:56:48;;;;;;;15.80;9.33;;;;;;;;;;5036897;28;20199;-79
2023/12/21 07:59:14;;;;;;;13.57;9.43;;;;;;;;;;5055437;28;20313;-78
2023/12/21 08:01:40;;;;;;;12.00;8.63;;;;;;;;;;5056050;28;20586;-77
2023/12/21 08:04:09;;;;;;;14.33;10.50;;;;;;;;;;5056767;28;20176;-78
2023/12/21 08:06:35;;;;;;;13.73;9.03;;;;;;;;;;5066412;28;20229;-79
2023/12/21 08:09:01;;;;;;;19.17;10.53;;;;;;;;;;5056866;28;20203;-78
2023/12/21 08:11:27;;;;;;;12.90;9.07;;;;;;;;;;5055927;28;20231;-79
2023/12/21 08:13:53;;;;;;;14.27;9.53;;;;;;;;;;5055265;28;20186;-78
2023/12/21 08:16:19;;;;;;;12.63;8.93;;;;;;;;;;5037437;28;20263;-79
2023/12/21 08:18:46;;;;;;;14.07;8.40;;;;;;;;;;5055685;28;20636;-78
2023/12/21 08:21:12;;;;;;;12.40;9.10;;;;;;;;;;5055683;28;20176;-77
2023/12/21 08:23:39;;;;;;;15.00;10.40;;;;;;;;;;5054863;28;20179;-79
2023/12/21 08:26:06;;;;;;;13.63;9.27;;;;;;;;;;5063079;28;20259;-78
2023/12/21 08:28:32;;;;;;;13.97;9.47;;;;;;;;;;5067299;28;20176;-79
2023/12/21 08:31:00;;;;;;;13.57;9.00;;;;;;;;;;5040308;28;20191;-78
2023/12/21 08:33:26;;;;;;;13.13;9.83;;;;;;;;;;5055519;28;20643;-78
2023/12/21 08:35:52;;;;;;;13.40;9.90;;;;;;;;;;5055492;28;20643;-77
2023/12/21 08:38:18;;;;;;;13.33;9.93;;;;;;;;;;5055034;28;20172;-78
2023/12/21 08:40:47;;;;;;;15.43;9.93;;;;;;;;;;5053945;28;20168;-82
2023/12/21 08:43:14;;;;;;;12.30;9.37;;;;;;;;;;5059664;28;20175;-79
2023/12/21 08:45:40;;;;;;;14.23;10.03;;;;;;;;;;5038705;28;20239;-78
2023/12/21 08:48:07;;;;;;;15.53;9.67;;;;;;;;;;5042948;28;20165;-77
2023/12/21 08:50:33;;;;;;;12.93;9.93;;;;;;;;;;5035040;28;20191;-79
2023/12/21 08:53:00;;;;;;;11.43;8.90;;;;;;;;;;5053328;28;20176;-79
2023/12/21 08:55:30;;;;;;;16.27;10.63;;;;;;;;;;5038697;28;20175;-77
2023/12/21 08:57:57;;;;;;;16.87;10.13;;;;;;;;;;5058359;28;20206;-80
2023/12/21 09:00:24;;;;;;;14.93;9.90;;;;;;;;;;5055316;28;20170;-77
2023/12/21 09:02:50;;;;;;;16.20;11.07;;;;;;;;;;5056172;28;20211;-80
2023/12/21 09:05:16;;;;;;;15.20;10.10;;;;;;;;;;5062121;28;20171;-78
2023/12/21 09:07:44;;;;;;;13.43;9.77;;;;;;;;;;5041356;28;20191;-78
2023/12/21 09:10:11;;;;;;;13.97;10.33;;;;;;;;;;5040266;28;20177;-75
2023/12/21 09:12:37;;;;;;;13.37;10.13;;;;;;;;;;5059148;28;20175;-78
2023/12/21 09:15:04;;;;;;;14.03;10.20;;;;;;;;;;5059507;28;20187;-77
2023/12/21 09:17:30;;;;;;;14.57;10.43;;;;;;;;;;5053588;28;20276;-79
2023/12/21 09:19:57;;;;;;;16.40;10.50;;;;;;;;;;5055400;28;20266;-78
2023/12/21 09:22:26;;;;;;;14.90;10.87;;;;;;;;;;5055742;28;20185;-77
2023/12/21 09:24:53;;;;;;;15.63;11.00;;;;;;;;;;5065429;28;20177;-78
2023/12/21 09:27:19;;;;;;;14.90;9.83;;;;;;;;;;5056014;28;20267;-79
2023/12/21 09:29:46;;;;;;;13.97;10.60;;;;;;;;;;5055153;28;20187;-77
2023/12/21 09:32:12;;;;;;;17.83;11.13;;;;;;;;;;5054288;28;20190;-77
2023/12/21 09:34:38;;;;;;;17.83;11.00;;;;;;;;;;5053906;28;20176;-77
2023/12/21 09:37:04;;;;;;;17.67;10.70;;;;;;;;;;5053565;28;20176;-77
2023/12/21 09:39:30;;;;;;;17.50;11.97;;;;;;;;;;5053795;28;20522;-80
2023/12/21 09:42:00;;;;;;;16.13;11.33;;;;;;;;;;5053730;28;20176;-78
2023/12/21 09:44:27;;;;;;;13.57;9.97;;;;;;;;;;5053415;28;20178;-78
2023/12/21 09:46:54;;;;;;;16.20;11.20;;;;;;;;;;5053017;28;20301;-77
2023/12/21 09:49:21;;;;;;;13.70;9.90;;;;;;;;;;5052769;28;20172;-77
2023/12/21 09:51:47;;;;;;;14.57;9.63;;;;;;;;;;5054286;28;20651;-78
2023/12/21 09:54:13;;;;;;;13.00;10.33;;;;;;;;;;5053364;28;20183;-79
2023/12/21 09:56:40;;;;;;;16.20;10.07;;;;;;;;;;5054023;28;20258;-78
2023/12/21 09:59:07;;;;;;;19.27;10.40;;;;;;;;;;5053828;28;20574;-80
2023/12/21 10:01:33;;;;;;;12.40;9.77;;;;;;;;;;5054472;28;20634;-76
2023/12/21 10:04:00;;;;;;;13.50;9.73;;;;;;;;;;5054463;28;20686;-79
2023/12/21 10:06:26;;;;;;;12.87;8.97;;;;;;;;;;5057684;28;20203;-79
2023/12/21 10:08:53;;;;;;;14.50;9.83;;;;;;;;;;5060242;28;20179;-77
2023/12/21 10:11:19;;;;;;;15.67;9.37;;;;;;;;;;5060826;28;20175;-78
2023/12/21 10:13:49;;;;;;;15.77;9.43;;;;;;;;;;5058463;28;20179;-80
2023/12/21 10:16:16;;;;;;;11.93;9.17;;;;;;;;;;5054031;28;20208;-79
2023/12/21 10:18:43;;;;;;;13.97;8.40;;;;;;;;;;5053544;28;20638;-79
2023/12/21 10:21:09;;;;;;;16.17;8.70;;;;;;;;;;5054012;28;20648;-79
2023/12/21 10:23:38;;;;;;;9.33;7.80;;;;;;;;;;5053723;28;20170;-78
2023/12/21 10:26:04;;;;;;;12.70;9.03;;;;;;;;;;5053529;28;20206;-77
2023/12/21 10:28:30;;;;;;;13.10;9.30;;;;;;;;;;5054687;28;20178;-77
2023/12/21 10:30:57;;;;;;;9.80;8.37;;;;;;;;;;5055691;28;20179;-76
2023/12/21 10:33:26;;;;;;;10.47;8.10;;;;;;;;;;5039969;28;20285;-78
2023/12/21 10:35:52;;;;;;;9.80;7.90;;;;;;;;;;5063866;28;20184;-79
2023/12/21 10:38:18;;;;;;;11.83;8.63;;;;;;;;;;5054300;28;20494;-79
2023/12/21 10:40:49;;;;;;;10.80;8.47;;;;;;;;;;5055001;28;20647;-74
2023/12/21 10:43:16;;;;;;;16.33;8.80;;;;;;;;;;5064338;28;20191;-75
2023/12/21 10:45:45;;;;;;;12.30;9.50;;;;;;;;;;5053272;28;20204;-77
2023/12/21 10:48:12;;;;;;;10.97;8.93;;;;;;;;;;5036675;28;20184;-78
2023/12/21 10:50:39;;;;;;;12.17;9.47;;;;;;;;;;5053942;28;20234;-80
2023/12/21 10:53:05;;;;;;;15.70;9.37;;;;;;;;;;5053149;28;20175;-77
2023/12/21 10:55:32;;;;;;;12.87;9.80;;;;;;;;;;5053801;28;20221;-78
2023/12/21 10:58:02;;;;;;;15.00;8.97;;;;;;;;;;5054931;28;20180;-77
2023/12/21 11:00:29;;;;;;;15.60;9.33;;;;;;;;;;5074118;28;20542;-77
2023/12/21 11:02:56;;;;;;;17.87;9.77;;;;;;;;;;5074887;28;20523;-76
2023/12/21 11:05:23;;;;;;;10.67;9.30;;;;;;;;;;5084090;28;20169;-76
2023/12/21 11:07:53;;;;;;;12.77;9.00;;;;;;;;;;5079118;28;20216;-78
2023/12/21 11:10:21;;;;;;;12.53;8.43;;;;;;;;;;5077242;28;20181;-78
2023/12/21 11:12:47;;;;;;;13.37;9.10;;;;;;;;;;5081416;28;20174;-77
2023/12/21 11:15:18;;;;;;;12.70;8.73;;;;;;;;;;5080953;28;20212;-76
2023/12/21 11:17:48;;;;;;;11.10;9.13;;;;;;;;;;5077975;28;20262;-78
2023/12/21 11:20:16;;;;;;;17.97;9.67;;;;;;;;;;5078056;28;20211;-77
2023/12/21 11:22:43;;;;;;;10.20;8.63;;;;;;;;;;5077454;28;20175;-78
2023/12/21 11:25:12;;;;;;;11.87;9.23;;;;;;;;;;5078447;28;20225;-79
2023/12/21 11:27:40;;;;;;;12.63;9.67;;;;;;;;;;5077990;28;20224;-78
2023/12/21 11:30:10;;;;;;;11.93;9.30;;;;;;;;;;5078413;28;20584;-80
2023/12/21 11:32:38;;;;;;;13.40;9.20;;;;;;;;;;5077674;28;20177;-79
2023/12/21 11:35:04;;;;;;;13.63;9.03;;;;;;;;;;5059134;28;20177;-76
2023/12/21 11:37:34;;;;;;;12.50;9.13;;;;;;;;;;5084631;28;20230;-78
2023/12/21 11:40:04;;;;;;;13.47;8.80;;;;;;;;;;5087781;28;20170;-76
2023/12/21 11:42:34;;;;;;;15.03;9.53;;;;;;;;;;5076929;28;20174;-79
2023/12/21 11:45:03;;;;;;;14.63;8.23;;;;;;;;;;5036945;28;20176;-78
2023/12/21 11:47:30;;;;;;;11.90;8.77;;;;;;;;;;5037207;28;20337;-76
2023/12/21 11:50:09;;;;;;;15.07;9.43;;;;;;;;;;5038286;28;20172;-78
2023/12/21 11:52:35;;;;;;;11.00;8.77;;;;;;;;;;5039190;28;20245;-78
2023/12/21 11:55:02;;;;;;;13.40;10.07;;;;;;;;;;5036631;28;20203;-78
2023/12/21 11:57:32;;;;;;;13.77;8.87;;;;;;;;;;5040236;28;20236;-77
2023/12/21 12:00:05;;;;;;;8.47;7.53;;;;;;;;;;5053736;28;20683;-78
2023/12/21 12:02:33;;;;;;;11.37;8.37;;;;;;;;;;5047006;28;20167;-76
2023/12/21 12:04:59;;;;;;;11.83;8.33;;;;;;;;;;5035212;28;20238;-77
2023/12/21 12:07:26;;;;;;;12.17;8.67;;;;;;;;;;5056003;28;20218;-80
2023/12/21 12:09:54;;;;;;;14.30;8.23;;;;;;;;;;5037575;28;20287;-76
2023/12/21 12:12:20;;;;;;;13.77;8.57;;;;;;;;;;5055555;28;20168;-78
2023/12/21 12:14:46;;;;;;;11.97;8.87;;;;;;;;;;5035295;28;20175;-76
2023/12/21 12:17:13;;;;;;;10.27;8.17;;;;;;;;;;5057279;28;20188;-76
2023/12/21 12:19:40;;;;;;;11.93;8.50;;;;;;;;;;5063802;28;20202;-79
2023/12/21 12:22:06;;;;;;;12.70;8.57;;;;;;;;;;5055819;28;20177;-79
2023/12/21 12:24:32;;;;;;;16.73;9.43;;;;;;;;;;5037487;28;20194;-78
2023/12/21 12:26:58;;;;;;;11.43;8.90;;;;;;;;;;5054646;28;20214;-78
2023/12/21 12:29:28;;;;;;;14.30;10.07;;;;;;;;;;5058885;28;20564;-77
2023/12/21 12:31:54;;;;;;;19.43;8.73;;;;;;;;;;5069528;28;20222;-77
2023/12/21 12:34:20;;;;;;;21.07;9.57;;;;;;;;;;5067034;28;20176;-78
2023/12/21 12:36:53;;;;;;;17.17;9.13;;;;;;;;;;5070356;28;20198;-76
2023/12/21 12:39:20;;;;;;;16.33;9.07;;;;;;;;;;5060965;28;20164;-78
2023/12/21 12:41:47;;;;;;;20.13;9.47;;;;;;;;;;5055703;28;20187;-78
2023/12/21 12:44:13;;;;;;;19.30;9.43;;;;;;;;;;5044519;28;20184;-78
2023/12/21 12:46:40;;;;;;;17.23;10.27;;;;;;;;;;5055024;28;20203;-80
2023/12/21 12:49:06;;;;;;;14.97;10.50;;;;;;;;;;5054057;28;20179;-78
2023/12/21 12:51:32;;;;;;;16.33;10.67;;;;;;;;;;5055099;28;20658;-78
2023/12/21 12:54:00;;;;;;;19.60;11.13;;;;;;;;;;5054482;28;20164;-78
2023/12/21 12:56:26;;;;;;;22.90;11.00;;;;;;;;;;5056635;28;20179;-77
2023/12/21 12:58:53;;;;;;;24.37;11.73;;;;;;;;;;5077622;28;20706;-76
2023/12/21 13:01:19;;;;;;;20.00;11.17;;;;;;;;;;5076833;28;20178;-77
2023/12/21 13:03:46;;;;;;;18.87;11.30;;;;;;;;;;5095091;28;20175;-77
2023/12/21 13:06:12;;;;;;;17.33;10.53;;;;;;;;;;5076613;28;20209;-78
2023/12/21 13:08:38;;;;;;;18.67;10.73;;;;;;;;;;5076346;28;20170;-78
2023/12/21 13:11:04;;;;;;;14.27;10.50;;;;;;;;;;5094134;28;20265;-79
2023/12/21 13:13:31;;;;;;;15.30;10.93;;;;;;;;;;5076169;28;20227;-77
2023/12/21 13:15:59;;;;;;;17.23;10.27;;;;;;;;;;5079038;28;20347;-75
2023/12/21 13:18:26;;;;;;;20.07;10.10;;;;;;;;;;5113469;28;20174;-76
2023/12/21 13:20:52;;;;;;;20.27;9.80;;;;;;;;;;5084073;28;20239;-78
2023/12/21 13:23:18;;;;;;;15.27;9.30;;;;;;;;;;5095105;28;20176;-77
2023/12/21 13:25:44;;;;;;;15.20;9.60;;;;;;;;;;5096922;28;20201;-78
2023/12/21 13:28:10;;;;;;;13.10;9.60;;;;;;;;;;5097519;28;20178;-80
2023/12/21 13:30:37;;;;;;;11.23;9.10;;;;;;;;;;5076729;28;20194;-77
2023/12/21 13:33:03;;;;;;;18.70;10.07;;;;;;;;;;5085070;28;20215;-78
2023/12/21 13:35:29;;;;;;;14.43;9.20;;;;;;;;;;5097350;28;20230;-77
2023/12/21 13:37:55;;;;;;;11.60;8.53;;;;;;;;;;5094471;28;20176;-78
2023/12/21 13:40:22;;;;;;;13.20;8.77;;;;;;;;;;5076163;28;20182;-76
2023/12/21 13:42:48;;;;;;;11.30;8.43;;;;;;;;;;5106590;28;20158;-77
2023/12/21 13:45:14;;;;;;;14.47;9.80;;;;;;;;;;5106428;28;20178;-76
2023/12/21 13:47:41;;;;;;;17.07;9.43;;;;;;;;;;5094212;28;20499;-80
2023/12/21 13:50:07;;;;;;;17.73;9.90;;;;;;;;;;5075656;28;20182;-77
2023/12/21 13:52:33;;;;;;;17.30;8.87;;;;;;;;;;5094322;28;20174;-77
2023/12/21 13:54:59;;;;;;;16.20;9.47;;;;;;;;;;5096470;28;20533;-78
2023/12/21 13:57:26;;;;;;;16.97;9.30;;;;;;;;;;5095131;28;20171;-78
2023/12/21 13:59:52;;;;;;;14.83;9.70;;;;;;;;;;5095605;28;20710;-76
2023/12/21 14:02:18;;;;;;;17.90;10.30;;;;;;;;;;5096856;28;20253;-76
2023/12/21 14:04:44;;;;;;;18.53;10.20;;;;;;;;;;5094548;28;20242;-76
2023/12/21 14:07:10;;;;;;;16.63;9.97;;;;;;;;;;5092796;28;20214;-79
2023/12/21 14:09:38;;;;;;;21.63;10.23;;;;;;;;;;5092094;28;20185;-78
2023/12/21 14:12:04;;;;;;;19.10;9.87;;;;;;;;;;5094344;28;20182;-77
2023/12/21 14:14:30;;;;;;;18.93;10.33;;;;;;;;;;5092691;28;20175;-78
2023/12/21 14:16:56;;;;;;;16.53;10.23;;;;;;;;;;5093832;28;20231;-76
2023/12/21 14:19:23;;;;;;;15.87;10.10;;;;;;;;;;5093988;28;20180;-79